sensor_id;sensor_type;location;lat;lon;timestamp;P1;durP1;ratioP1;P2;durP2;ratioP2
68792;SDS011;55778;54.346;10.210;2022-11-15T00:00:07;60.47;;;20.63;;
68792;SDS011;55778;54.346;10.210;2022-11-15T00:02:33;60.88;;;21.35;;
68792;SDS011;55778;54.346;10.210;2022-11-15T00:04:59;61.13;;;22.08;;
68792;SDS011;55778;54.346;10.210;2022-11-15T00:07:24;60.67;;;21.20;;
68792;SDS011;55778;54.346;10.210;2022-11-15T00:09:50;60.88;;;21.15;;
68792;SDS011;55778;54.346;10.210;2022-11-15T00:12:15;55.13;;;20.45;;
68792;SDS011;55778;54.346;10.210;2022-11-15T00:14:40;57.55;;;20.75;;
68792;SDS011;55778;54.346;10.210;2022-11-15T00:17:06;58.78;;;21.45;;
68792;SDS011;55778;54.346;10.210;2022-11-15T00:19:31;55.63;;;20.85;;
68792;SDS011;55778;54.346;10.210;2022-11-15T00:21:57;58.42;;;20.38;;
68792;SDS011;55778;54.346;10.210;2022-11-15T00:24:22;57.40;;;21.60;;
68792;SDS011;55778;54.346;10.210;2022-11-15T00:26:48;65.57;;;23.42;;
68792;SDS011;55778;54.346;10.210;2022-11-15T00:29:13;53.50;;;20.67;;
68792;SDS011;55778;54.346;10.210;2022-11-15T00:31:39;54.20;;;18.70;;
68792;SDS011;55778;54.346;10.210;2022-11-15T00:34:04;56.17;;;19.73;;
68792;SDS011;55778;54.346;10.210;2022-11-15T00:36:32;56.25;;;19.25;;
68792;SDS011;55778;54.346;10.210;2022-11-15T00:38:58;59.67;;;20.25;;
68792;SDS011;55778;54.346;10.210;2022-11-15T00:41:23;59.08;;;19.98;;
68792;SDS011;55778;54.346;10.210;2022-11-15T00:43:52;64.22;;;21.52;;
68792;SDS011;55778;54.346;10.210;2022-11-15T00:46:17;59.22;;;20.60;;
68792;SDS011;55778;54.346;10.210;2022-11-15T00:48:43;63.15;;;21.25;;
68792;SDS011;55778;54.346;10.210;2022-11-15T00:51:08;60.92;;;21.83;;
68792;SDS011;55778;54.346;10.210;2022-11-15T00:53:33;61.83;;;21.05;;
68792;SDS011;55778;54.346;10.210;2022-11-15T00:55:59;58.17;;;20.98;;
68792;SDS011;55778;54.346;10.210;2022-11-15T00:58:25;59.83;;;21.75;;
68792;SDS011;55778;54.346;10.210;2022-11-15T01:00:50;54.63;;;20.38;;
68792;SDS011;55778;54.346;10.210;2022-11-15T01:03:16;61.33;;;21.20;;
68792;SDS011;55778;54.346;10.210;2022-11-15T01:05:41;63.13;;;21.58;;
68792;SDS011;55778;54.346;10.210;2022-11-15T01:08:10;54.20;;;20.40;;
68792;SDS011;55778;54.346;10.210;2022-11-15T01:10:38;59.08;;;20.52;;
68792;SDS011;55778;54.346;10.210;2022-11-15T01:13:03;56.28;;;19.02;;
68792;SDS011;55778;54.346;10.210;2022-11-15T01:15:28;61.75;;;21.30;;
68792;SDS011;55778;54.346;10.210;2022-11-15T01:17:54;59.85;;;21.35;;
68792;SDS011;55778;54.346;10.210;2022-11-15T01:20:19;54.63;;;20.65;;
68792;SDS011;55778;54.346;10.210;2022-11-15T01:22:45;54.75;;;19.58;;
68792;SDS011;55778;54.346;10.210;2022-11-15T01:25:10;52.70;;;20.17;;
68792;SDS011;55778;54.346;10.210;2022-11-15T01:27:36;54.88;;;19.58;;
68792;SDS011;55778;54.346;10.210;2022-11-15T01:30:01;60.10;;;20.75;;
68792;SDS011;55778;54.346;10.210;2022-11-15T01:32:27;57.38;;;19.17;;
68792;SDS011;55778;54.346;10.210;2022-11-15T01:34:52;54.17;;;20.13;;
68792;SDS011;55778;54.346;10.210;2022-11-15T01:37:18;51.92;;;19.67;;
68792;SDS011;55778;54.346;10.210;2022-11-15T01:39:43;53.80;;;18.80;;
68792;SDS011;55778;54.346;10.210;2022-11-15T01:42:11;49.33;;;17.85;;
68792;SDS011;55778;54.346;10.210;2022-11-15T01:44:43;56.90;;;19.50;;
68792;SDS011;55778;54.346;10.210;2022-11-15T01:49:59;54.88;;;20.38;;
68792;SDS011;55778;54.346;10.210;2022-11-15T01:52:28;52.45;;;17.92;;
68792;SDS011;55778;54.346;10.210;2022-11-15T01:54:58;54.40;;;19.63;;
68792;SDS011;55778;54.346;10.210;2022-11-15T01:57:26;56.05;;;19.23;;
68792;SDS011;55778;54.346;10.210;2022-11-15T01:59:51;55.25;;;20.25;;
68792;SDS011;55778;54.346;10.210;2022-11-15T02:02:19;54.33;;;20.05;;
68792;SDS011;55778;54.346;10.210;2022-11-15T02:04:46;54.95;;;20.48;;
68792;SDS011;55778;54.346;10.210;2022-11-15T02:07:13;52.60;;;19.52;;
68792;SDS011;55778;54.346;10.210;2022-11-15T02:09:42;56.92;;;19.63;;
68792;SDS011;55778;54.346;10.210;2022-11-15T02:12:08;57.38;;;19.30;;
68792;SDS011;55778;54.346;10.210;2022-11-15T02:14:38;58.13;;;20.92;;
68792;SDS011;55778;54.346;10.210;2022-11-15T02:36:47;50.53;;;16.38;;
68792;SDS011;55778;54.346;10.210;2022-11-15T02:42:03;53.53;;;19.15;;
68792;SDS011;55778;54.346;10.210;2022-11-15T02:44:52;45.45;;;17.65;;
68792;SDS011;55778;54.346;10.210;2022-11-15T02:47:21;51.38;;;20.13;;
68792;SDS011;55778;54.346;10.210;2022-11-15T02:49:50;55.40;;;19.73;;
68792;SDS011;55778;54.346;10.210;2022-11-15T02:52:22;51.60;;;18.98;;
68792;SDS011;55778;54.346;10.210;2022-11-15T02:54:54;53.17;;;18.58;;
68792;SDS011;55778;54.346;10.210;2022-11-15T02:57:24;48.83;;;17.60;;
68792;SDS011;55778;54.346;10.210;2022-11-15T03:00:17;49.83;;;17.90;;
68792;SDS011;55778;54.346;10.210;2022-11-15T03:08:06;50.95;;;18.67;;
68792;SDS011;55778;54.346;10.210;2022-11-15T03:12:56;50.75;;;18.88;;
68792;SDS011;55778;54.346;10.210;2022-11-15T03:15:32;53.05;;;20.58;;
68792;SDS011;55778;54.346;10.210;2022-11-15T03:18:22;53.15;;;19.30;;
68792;SDS011;55778;54.346;10.210;2022-11-15T03:20:54;48.63;;;18.30;;
68792;SDS011;55778;54.346;10.210;2022-11-15T03:23:22;62.40;;;20.45;;
68792;SDS011;55778;54.346;10.210;2022-11-15T03:25:50;52.65;;;20.10;;
68792;SDS011;55778;54.346;10.210;2022-11-15T03:28:18;49.95;;;19.20;;
68792;SDS011;55778;54.346;10.210;2022-11-15T03:30:47;49.72;;;18.35;;
68792;SDS011;55778;54.346;10.210;2022-11-15T03:33:14;55.67;;;19.45;;
68792;SDS011;55778;54.346;10.210;2022-11-15T03:35:42;53.42;;;19.30;;
68792;SDS011;55778;54.346;10.210;2022-11-15T03:38:25;52.35;;;19.77;;
68792;SDS011;55778;54.346;10.210;2022-11-15T03:41:04;57.13;;;19.90;;
68792;SDS011;55778;54.346;10.210;2022-11-15T03:46:14;49.08;;;18.88;;
68792;SDS011;55778;54.346;10.210;2022-11-15T03:48:52;50.85;;;19.52;;
68792;SDS011;55778;54.346;10.210;2022-11-15T03:51:24;57.50;;;20.52;;
68792;SDS011;55778;54.346;10.210;2022-11-15T03:53:50;49.60;;;18.90;;
68792;SDS011;55778;54.346;10.210;2022-11-15T03:56:15;49.95;;;19.23;;
68792;SDS011;55778;54.346;10.210;2022-11-15T03:58:40;51.85;;;19.40;;
68792;SDS011;55778;54.346;10.210;2022-11-15T04:01:06;50.80;;;19.25;;
68792;SDS011;55778;54.346;10.210;2022-11-15T04:03:31;51.33;;;19.95;;
68792;SDS011;55778;54.346;10.210;2022-11-15T04:05:57;48.63;;;18.98;;
68792;SDS011;55778;54.346;10.210;2022-11-15T04:08:22;57.58;;;20.27;;
68792;SDS011;55778;54.346;10.210;2022-11-15T04:10:48;55.20;;;19.92;;
68792;SDS011;55778;54.346;10.210;2022-11-15T04:13:14;52.55;;;18.50;;
68792;SDS011;55778;54.346;10.210;2022-11-15T04:15:39;48.15;;;17.95;;
68792;SDS011;55778;54.346;10.210;2022-11-15T04:18:05;51.28;;;19.25;;
68792;SDS011;55778;54.346;10.210;2022-11-15T04:20:30;50.65;;;19.00;;
68792;SDS011;55778;54.346;10.210;2022-11-15T04:23:16;52.95;;;19.08;;
68792;SDS011;55778;54.346;10.210;2022-11-15T04:26:03;58.65;;;19.85;;
68792;SDS011;55778;54.346;10.210;2022-11-15T04:28:30;48.83;;;18.35;;
68792;SDS011;55778;54.346;10.210;2022-11-15T04:30:56;52.55;;;19.38;;
68792;SDS011;55778;54.346;10.210;2022-11-15T04:33:22;52.03;;;18.90;;
68792;SDS011;55778;54.346;10.210;2022-11-15T04:35:47;48.70;;;18.08;;
68792;SDS011;55778;54.346;10.210;2022-11-15T04:38:33;53.85;;;19.33;;
68792;SDS011;55778;54.346;10.210;2022-11-15T04:40:59;48.67;;;18.45;;
68792;SDS011;55778;54.346;10.210;2022-11-15T04:43:25;50.58;;;18.30;;
68792;SDS011;55778;54.346;10.210;2022-11-15T04:45:51;57.75;;;20.23;;
68792;SDS011;55778;54.346;10.210;2022-11-15T04:48:16;54.25;;;19.30;;
68792;SDS011;55778;54.346;10.210;2022-11-15T04:50:42;52.80;;;19.77;;
68792;SDS011;55778;54.346;10.210;2022-11-15T04:53:07;44.80;;;15.20;;
68792;SDS011;55778;54.346;10.210;2022-11-15T04:55:32;43.50;;;15.27;;
68792;SDS011;55778;54.346;10.210;2022-11-15T04:57:59;37.85;;;12.82;;
68792;SDS011;55778;54.346;10.210;2022-11-15T05:00:25;63.65;;;21.25;;
68792;SDS011;55778;54.346;10.210;2022-11-15T05:02:51;56.05;;;19.17;;
68792;SDS011;55778;54.346;10.210;2022-11-15T05:05:36;53.88;;;19.17;;
68792;SDS011;55778;54.346;10.210;2022-11-15T05:08:02;57.63;;;19.65;;
68792;SDS011;55778;54.346;10.210;2022-11-15T05:10:27;53.10;;;17.13;;
68792;SDS011;55778;54.346;10.210;2022-11-15T05:12:53;53.92;;;18.00;;
68792;SDS011;55778;54.346;10.210;2022-11-15T05:15:18;55.70;;;19.42;;
68792;SDS011;55778;54.346;10.210;2022-11-15T05:17:44;50.15;;;16.55;;
68792;SDS011;55778;54.346;10.210;2022-11-15T05:20:09;51.45;;;19.88;;
68792;SDS011;55778;54.346;10.210;2022-11-15T05:22:35;56.38;;;19.92;;
68792;SDS011;55778;54.346;10.210;2022-11-15T05:25:01;58.17;;;20.00;;
68792;SDS011;55778;54.346;10.210;2022-11-15T05:27:26;55.33;;;19.63;;
68792;SDS011;55778;54.346;10.210;2022-11-15T05:29:52;54.65;;;19.25;;
68792;SDS011;55778;54.346;10.210;2022-11-15T05:32:20;51.75;;;19.35;;
68792;SDS011;55778;54.346;10.210;2022-11-15T05:34:46;57.97;;;20.67;;
68792;SDS011;55778;54.346;10.210;2022-11-15T05:37:12;53.22;;;18.05;;
68792;SDS011;55778;54.346;10.210;2022-11-15T05:39:39;59.25;;;19.83;;
68792;SDS011;55778;54.346;10.210;2022-11-15T05:42:08;54.67;;;20.00;;
68792;SDS011;55778;54.346;10.210;2022-11-15T05:44:36;51.67;;;18.45;;
68792;SDS011;55778;54.346;10.210;2022-11-15T05:47:04;54.72;;;18.75;;
68792;SDS011;55778;54.346;10.210;2022-11-15T05:49:34;57.53;;;21.00;;
68792;SDS011;55778;54.346;10.210;2022-11-15T05:52:04;61.20;;;20.15;;
68792;SDS011;55778;54.346;10.210;2022-11-15T05:54:32;57.47;;;19.73;;
68792;SDS011;55778;54.346;10.210;2022-11-15T05:56:59;55.80;;;20.40;;
68792;SDS011;55778;54.346;10.210;2022-11-15T05:59:25;55.90;;;20.73;;
68792;SDS011;55778;54.346;10.210;2022-11-15T06:01:50;58.83;;;20.02;;
68792;SDS011;55778;54.346;10.210;2022-11-15T06:04:16;51.42;;;19.58;;
68792;SDS011;55778;54.346;10.210;2022-11-15T06:06:41;60.13;;;21.38;;
68792;SDS011;55778;54.346;10.210;2022-11-15T06:09:07;55.97;;;20.02;;
68792;SDS011;55778;54.346;10.210;2022-11-15T06:11:33;47.00;;;18.77;;
68792;SDS011;55778;54.346;10.210;2022-11-15T06:13:58;51.92;;;19.83;;
68792;SDS011;55778;54.346;10.210;2022-11-15T06:16:23;49.67;;;18.65;;
68792;SDS011;55778;54.346;10.210;2022-11-15T06:18:49;46.25;;;19.08;;
68792;SDS011;55778;54.346;10.210;2022-11-15T06:21:14;47.40;;;18.55;;
68792;SDS011;55778;54.346;10.210;2022-11-15T06:23:40;49.95;;;19.48;;
68792;SDS011;55778;54.346;10.210;2022-11-15T06:26:05;45.15;;;17.90;;
68792;SDS011;55778;54.346;10.210;2022-11-15T06:28:31;42.88;;;18.25;;
68792;SDS011;55778;54.346;10.210;2022-11-15T06:31:04;46.65;;;18.70;;
68792;SDS011;55778;54.346;10.210;2022-11-15T06:33:29;44.90;;;17.13;;
68792;SDS011;55778;54.346;10.210;2022-11-15T06:35:55;43.25;;;18.13;;
68792;SDS011;55778;54.346;10.210;2022-11-15T06:38:23;44.78;;;18.23;;
68792;SDS011;55778;54.346;10.210;2022-11-15T06:40:49;46.08;;;16.52;;
68792;SDS011;55778;54.346;10.210;2022-11-15T06:43:14;40.15;;;16.27;;
68792;SDS011;55778;54.346;10.210;2022-11-15T06:45:39;43.35;;;17.30;;
68792;SDS011;55778;54.346;10.210;2022-11-15T06:48:05;43.72;;;17.30;;
68792;SDS011;55778;54.346;10.210;2022-11-15T06:50:30;40.00;;;17.17;;
68792;SDS011;55778;54.346;10.210;2022-11-15T06:53:03;46.42;;;18.00;;
68792;SDS011;55778;54.346;10.210;2022-11-15T06:55:29;41.30;;;17.10;;
68792;SDS011;55778;54.346;10.210;2022-11-15T06:57:54;40.78;;;17.20;;
68792;SDS011;55778;54.346;10.210;2022-11-15T07:00:20;48.67;;;19.83;;
68792;SDS011;55778;54.346;10.210;2022-11-15T07:02:47;40.78;;;16.88;;
68792;SDS011;55778;54.346;10.210;2022-11-15T07:05:13;40.47;;;17.58;;
68792;SDS011;55778;54.346;10.210;2022-11-15T07:07:39;48.22;;;18.85;;
68792;SDS011;55778;54.346;10.210;2022-11-15T07:10:05;40.92;;;16.60;;
68792;SDS011;55778;54.346;10.210;2022-11-15T07:12:31;44.75;;;17.63;;
68792;SDS011;55778;54.346;10.210;2022-11-15T07:14:57;41.50;;;17.83;;
68792;SDS011;55778;54.346;10.210;2022-11-15T07:17:22;40.03;;;16.38;;
68792;SDS011;55778;54.346;10.210;2022-11-15T07:19:48;46.00;;;17.23;;
68792;SDS011;55778;54.346;10.210;2022-11-15T07:22:13;41.08;;;17.60;;
68792;SDS011;55778;54.346;10.210;2022-11-15T07:24:39;40.90;;;18.15;;
68792;SDS011;55778;54.346;10.210;2022-11-15T07:27:04;38.00;;;16.60;;
68792;SDS011;55778;54.346;10.210;2022-11-15T07:29:30;38.75;;;16.08;;
68792;SDS011;55778;54.346;10.210;2022-11-15T07:31:55;39.35;;;16.05;;
68792;SDS011;55778;54.346;10.210;2022-11-15T07:34:24;45.35;;;18.00;;
68792;SDS011;55778;54.346;10.210;2022-11-15T07:36:49;39.28;;;17.55;;
68792;SDS011;55778;54.346;10.210;2022-11-15T07:39:15;42.38;;;17.98;;
68792;SDS011;55778;54.346;10.210;2022-11-15T07:41:40;42.15;;;18.40;;
68792;SDS011;55778;54.346;10.210;2022-11-15T07:44:06;39.40;;;17.65;;
68792;SDS011;55778;54.346;10.210;2022-11-15T07:46:31;38.03;;;16.48;;
68792;SDS011;55778;54.346;10.210;2022-11-15T07:48:57;45.83;;;18.88;;
68792;SDS011;55778;54.346;10.210;2022-11-15T07:51:23;35.88;;;15.68;;
68792;SDS011;55778;54.346;10.210;2022-11-15T07:53:48;36.97;;;15.35;;
68792;SDS011;55778;54.346;10.210;2022-11-15T07:56:13;38.33;;;15.85;;
68792;SDS011;55778;54.346;10.210;2022-11-15T07:58:39;35.80;;;16.08;;
68792;SDS011;55778;54.346;10.210;2022-11-15T08:01:05;35.75;;;15.60;;
68792;SDS011;55778;54.346;10.210;2022-11-15T08:03:32;37.53;;;15.55;;
68792;SDS011;55778;54.346;10.210;2022-11-15T08:05:58;33.15;;;13.63;;
68792;SDS011;55778;54.346;10.210;2022-11-15T08:08:24;32.63;;;12.77;;
68792;SDS011;55778;54.346;10.210;2022-11-15T08:10:49;35.88;;;14.40;;
68792;SDS011;55778;54.346;10.210;2022-11-15T08:13:14;35.60;;;14.73;;
68792;SDS011;55778;54.346;10.210;2022-11-15T08:15:40;32.88;;;14.93;;
68792;SDS011;55778;54.346;10.210;2022-11-15T08:18:09;33.53;;;15.45;;
68792;SDS011;55778;54.346;10.210;2022-11-15T08:20:36;37.75;;;14.45;;
68792;SDS011;55778;54.346;10.210;2022-11-15T08:23:03;31.50;;;14.27;;
68792;SDS011;55778;54.346;10.210;2022-11-15T08:25:29;31.73;;;13.32;;
68792;SDS011;55778;54.346;10.210;2022-11-15T08:27:57;27.85;;;11.63;;
68792;SDS011;55778;54.346;10.210;2022-11-15T08:30:28;32.33;;;13.75;;
68792;SDS011;55778;54.346;10.210;2022-11-15T08:32:55;33.80;;;13.38;;
68792;SDS011;55778;54.346;10.210;2022-11-15T08:35:23;33.45;;;13.65;;
68792;SDS011;55778;54.346;10.210;2022-11-15T08:37:49;31.05;;;13.40;;
68792;SDS011;55778;54.346;10.210;2022-11-15T08:40:16;30.83;;;14.30;;
68792;SDS011;55778;54.346;10.210;2022-11-15T08:42:48;31.00;;;13.35;;
68792;SDS011;55778;54.346;10.210;2022-11-15T08:45:14;30.33;;;12.40;;
68792;SDS011;55778;54.346;10.210;2022-11-15T08:47:40;29.60;;;13.52;;
68792;SDS011;55778;54.346;10.210;2022-11-15T08:50:05;29.55;;;13.73;;
68792;SDS011;55778;54.346;10.210;2022-11-15T08:52:31;31.65;;;13.65;;
68792;SDS011;55778;54.346;10.210;2022-11-15T08:54:57;27.92;;;12.60;;
68792;SDS011;55778;54.346;10.210;2022-11-15T08:57:23;25.88;;;12.65;;
68792;SDS011;55778;54.346;10.210;2022-11-15T08:59:49;28.92;;;13.27;;
68792;SDS011;55778;54.346;10.210;2022-11-15T09:02:14;30.35;;;13.90;;
68792;SDS011;55778;54.346;10.210;2022-11-15T09:04:41;28.63;;;13.13;;
68792;SDS011;55778;54.346;10.210;2022-11-15T09:07:08;28.17;;;13.10;;
68792;SDS011;55778;54.346;10.210;2022-11-15T09:09:34;31.55;;;14.07;;
68792;SDS011;55778;54.346;10.210;2022-11-15T09:12:00;31.15;;;14.77;;
68792;SDS011;55778;54.346;10.210;2022-11-15T09:14:25;28.45;;;14.10;;
68792;SDS011;55778;54.346;10.210;2022-11-15T09:16:51;29.00;;;13.57;;
68792;SDS011;55778;54.346;10.210;2022-11-15T09:19:17;29.63;;;13.25;;
68792;SDS011;55778;54.346;10.210;2022-11-15T09:21:42;29.13;;;13.00;;
68792;SDS011;55778;54.346;10.210;2022-11-15T09:24:08;31.15;;;13.52;;
68792;SDS011;55778;54.346;10.210;2022-11-15T09:26:33;25.90;;;12.73;;
68792;SDS011;55778;54.346;10.210;2022-11-15T09:28:59;27.77;;;12.68;;
68792;SDS011;55778;54.346;10.210;2022-11-15T09:31:26;30.23;;;13.35;;
68792;SDS011;55778;54.346;10.210;2022-11-15T09:33:51;30.80;;;13.57;;
68792;SDS011;55778;54.346;10.210;2022-11-15T09:36:17;27.67;;;13.00;;
68792;SDS011;55778;54.346;10.210;2022-11-15T09:38:43;29.52;;;13.68;;
68792;SDS011;55778;54.346;10.210;2022-11-15T09:41:22;26.23;;;11.90;;
68792;SDS011;55778;54.346;10.210;2022-11-15T09:49:55;20.05;;;10.02;;
68792;SDS011;55778;54.346;10.210;2022-11-15T09:52:23;25.42;;;12.18;;
68792;SDS011;55778;54.346;10.210;2022-11-15T09:54:50;26.45;;;12.10;;
68792;SDS011;55778;54.346;10.210;2022-11-15T09:57:21;26.05;;;11.95;;
68792;SDS011;55778;54.346;10.210;2022-11-15T10:02:42;22.65;;;11.27;;
68792;SDS011;55778;54.346;10.210;2022-11-15T10:05:12;24.80;;;12.23;;
68792;SDS011;55778;54.346;10.210;2022-11-15T10:07:46;23.65;;;12.48;;
68792;SDS011;55778;54.346;10.210;2022-11-15T10:10:39;25.40;;;11.55;;
68792;SDS011;55778;54.346;10.210;2022-11-15T10:13:23;23.75;;;11.65;;
68792;SDS011;55778;54.346;10.210;2022-11-15T10:15:49;24.40;;;11.52;;
68792;SDS011;55778;54.346;10.210;2022-11-15T10:23:20;23.42;;;11.50;;
68792;SDS011;55778;54.346;10.210;2022-11-15T10:25:48;23.15;;;11.60;;
68792;SDS011;55778;54.346;10.210;2022-11-15T10:28:21;25.38;;;11.95;;
68792;SDS011;55778;54.346;10.210;2022-11-15T10:30:52;24.70;;;10.55;;
68792;SDS011;55778;54.346;10.210;2022-11-15T10:36:16;23.90;;;10.68;;
68792;SDS011;55778;54.346;10.210;2022-11-15T10:41:13;24.13;;;11.20;;
68792;SDS011;55778;54.346;10.210;2022-11-15T10:43:39;24.10;;;11.57;;
68792;SDS011;55778;54.346;10.210;2022-11-15T10:46:22;26.48;;;12.00;;
68792;SDS011;55778;54.346;10.210;2022-11-15T10:48:49;24.35;;;11.45;;
68792;SDS011;55778;54.346;10.210;2022-11-15T10:51:27;23.25;;;10.88;;
68792;SDS011;55778;54.346;10.210;2022-11-15T10:53:56;24.42;;;11.55;;
68792;SDS011;55778;54.346;10.210;2022-11-15T10:58:52;22.30;;;10.63;;
68792;SDS011;55778;54.346;10.210;2022-11-15T11:01:27;25.98;;;10.70;;
68792;SDS011;55778;54.346;10.210;2022-11-15T11:06:24;22.23;;;10.60;;
68792;SDS011;55778;54.346;10.210;2022-11-15T11:08:54;24.00;;;11.27;;
68792;SDS011;55778;54.346;10.210;2022-11-15T11:11:20;23.08;;;11.10;;
68792;SDS011;55778;54.346;10.210;2022-11-15T11:13:45;22.60;;;10.77;;
68792;SDS011;55778;54.346;10.210;2022-11-15T11:21:22;24.17;;;11.40;;
68792;SDS011;55778;54.346;10.210;2022-11-15T11:42:59;22.80;;;10.90;;
68792;SDS011;55778;54.346;10.210;2022-11-15T11:48:26;22.63;;;11.25;;
68792;SDS011;55778;54.346;10.210;2022-11-15T11:51:01;20.15;;;9.57;;
68792;SDS011;55778;54.346;10.210;2022-11-15T11:53:47;23.85;;;10.50;;
68792;SDS011;55778;54.346;10.210;2022-11-15T11:56:25;22.92;;;10.60;;
68792;SDS011;55778;54.346;10.210;2022-11-15T11:58:54;24.70;;;10.65;;
68792;SDS011;55778;54.346;10.210;2022-11-15T12:01:42;23.05;;;11.07;;
68792;SDS011;55778;54.346;10.210;2022-11-15T12:04:19;23.35;;;10.98;;
68792;SDS011;55778;54.346;10.210;2022-11-15T12:07:01;23.58;;;10.95;;
68792;SDS011;55778;54.346;10.210;2022-11-15T12:15:22;23.67;;;10.88;;
68792;SDS011;55778;54.346;10.210;2022-11-15T12:17:53;23.92;;;11.48;;
68792;SDS011;55778;54.346;10.210;2022-11-15T12:22:58;20.65;;;10.23;;
68792;SDS011;55778;54.346;10.210;2022-11-15T12:28:37;21.48;;;9.95;;
68792;SDS011;55778;54.346;10.210;2022-11-15T12:31:30;19.50;;;9.93;;
68792;SDS011;55778;54.346;10.210;2022-11-15T12:34:12;21.02;;;10.63;;
68792;SDS011;55778;54.346;10.210;2022-11-15T12:36:48;21.17;;;10.60;;
68792;SDS011;55778;54.346;10.210;2022-11-15T12:39:15;22.70;;;10.93;;
68792;SDS011;55778;54.346;10.210;2022-11-15T12:41:43;19.63;;;10.00;;
68792;SDS011;55778;54.346;10.210;2022-11-15T12:44:15;21.65;;;10.75;;
68792;SDS011;55778;54.346;10.210;2022-11-15T12:47:22;22.33;;;11.35;;
68792;SDS011;55778;54.346;10.210;2022-11-15T12:49:49;21.05;;;10.07;;
68792;SDS011;55778;54.346;10.210;2022-11-15T12:52:16;20.98;;;10.75;;
68792;SDS011;55778;54.346;10.210;2022-11-15T12:54:54;21.50;;;10.40;;
68792;SDS011;55778;54.346;10.210;2022-11-15T12:57:31;23.17;;;11.65;;
68792;SDS011;55778;54.346;10.210;2022-11-15T13:00:44;24.77;;;12.18;;
68792;SDS011;55778;54.346;10.210;2022-11-15T13:02:44;19.80;;;10.10;;
68792;SDS011;55778;54.346;10.210;2022-11-15T13:22:40;22.30;;;10.68;;
68792;SDS011;55778;54.346;10.210;2022-11-15T13:30:59;20.35;;;10.68;;
68792;SDS011;55778;54.346;10.210;2022-11-15T13:33:32;20.63;;;10.30;;
68792;SDS011;55778;54.346;10.210;2022-11-15T13:36:01;22.27;;;10.80;;
68792;SDS011;55778;54.346;10.210;2022-11-15T13:38:31;19.70;;;10.23;;
68792;SDS011;55778;54.346;10.210;2022-11-15T13:40:59;20.57;;;11.20;;
68792;SDS011;55778;54.346;10.210;2022-11-15T13:43:36;21.25;;;10.65;;
68792;SDS011;55778;54.346;10.210;2022-11-15T13:48:50;18.35;;;9.68;;
68792;SDS011;55778;54.346;10.210;2022-11-15T13:51:44;20.88;;;10.38;;
68792;SDS011;55778;54.346;10.210;2022-11-15T13:56:41;18.17;;;9.63;;
68792;SDS011;55778;54.346;10.210;2022-11-15T13:59:15;17.17;;;9.75;;
68792;SDS011;55778;54.346;10.210;2022-11-15T14:01:48;19.63;;;9.45;;
68792;SDS011;55778;54.346;10.210;2022-11-15T14:04:17;18.52;;;9.88;;
68792;SDS011;55778;54.346;10.210;2022-11-15T14:06:45;20.50;;;9.82;;
68792;SDS011;55778;54.346;10.210;2022-11-15T14:09:24;20.08;;;10.27;;
68792;SDS011;55778;54.346;10.210;2022-11-15T14:11:59;22.17;;;9.93;;
68792;SDS011;55778;54.346;10.210;2022-11-15T14:14:26;17.83;;;9.40;;
68792;SDS011;55778;54.346;10.210;2022-11-15T14:16:59;18.02;;;9.27;;
68792;SDS011;55778;54.346;10.210;2022-11-15T14:24:39;17.95;;;9.43;;
68792;SDS011;55778;54.346;10.210;2022-11-15T14:27:16;19.50;;;9.00;;
68792;SDS011;55778;54.346;10.210;2022-11-15T14:29:44;19.73;;;9.73;;
68792;SDS011;55778;54.346;10.210;2022-11-15T14:35:09;17.85;;;9.48;;
68792;SDS011;55778;54.346;10.210;2022-11-15T14:37:39;16.73;;;9.50;;
68792;SDS011;55778;54.346;10.210;2022-11-15T14:40:08;16.60;;;8.50;;
68792;SDS011;55778;54.346;10.210;2022-11-15T14:42:38;21.27;;;10.35;;
68792;SDS011;55778;54.346;10.210;2022-11-15T14:45:07;19.00;;;9.55;;
68792;SDS011;55778;54.346;10.210;2022-11-15T14:47:37;17.67;;;10.20;;
68792;SDS011;55778;54.346;10.210;2022-11-15T14:50:05;19.35;;;9.82;;
68792;SDS011;55778;54.346;10.210;2022-11-15T14:52:31;20.50;;;10.25;;
68792;SDS011;55778;54.346;10.210;2022-11-15T14:55:02;20.85;;;11.02;;
68792;SDS011;55778;54.346;10.210;2022-11-15T14:57:31;21.85;;;10.82;;
68792;SDS011;55778;54.346;10.210;2022-11-15T14:59:56;20.48;;;9.60;;
68792;SDS011;55778;54.346;10.210;2022-11-15T15:02:23;19.88;;;10.32;;
68792;SDS011;55778;54.346;10.210;2022-11-15T15:04:50;20.35;;;9.82;;
68792;SDS011;55778;54.346;10.210;2022-11-15T15:07:16;16.45;;;9.05;;
68792;SDS011;55778;54.346;10.210;2022-11-15T15:09:42;18.15;;;10.00;;
68792;SDS011;55778;54.346;10.210;2022-11-15T15:12:15;18.00;;;9.50;;
68792;SDS011;55778;54.346;10.210;2022-11-15T15:14:48;18.17;;;9.95;;
68792;SDS011;55778;54.346;10.210;2022-11-15T15:17:15;16.83;;;9.05;;
68792;SDS011;55778;54.346;10.210;2022-11-15T15:19:41;18.98;;;9.75;;
68792;SDS011;55778;54.346;10.210;2022-11-15T15:22:19;19.75;;;9.73;;
68792;SDS011;55778;54.346;10.210;2022-11-15T15:24:47;18.05;;;9.52;;
68792;SDS011;55778;54.346;10.210;2022-11-15T15:27:16;22.20;;;10.07;;
68792;SDS011;55778;54.346;10.210;2022-11-15T15:29:41;20.92;;;10.18;;
68792;SDS011;55778;54.346;10.210;2022-11-15T15:32:07;20.98;;;10.32;;
68792;SDS011;55778;54.346;10.210;2022-11-15T15:34:34;19.38;;;10.07;;
68792;SDS011;55778;54.346;10.210;2022-11-15T15:39:51;21.00;;;9.45;;
68792;SDS011;55778;54.346;10.210;2022-11-15T15:42:21;20.45;;;9.48;;
68792;SDS011;55778;54.346;10.210;2022-11-15T15:44:48;20.25;;;9.48;;
68792;SDS011;55778;54.346;10.210;2022-11-15T15:47:21;20.77;;;10.73;;
68792;SDS011;55778;54.346;10.210;2022-11-15T15:49:48;22.75;;;10.07;;
68792;SDS011;55778;54.346;10.210;2022-11-15T15:52:14;21.05;;;10.30;;
68792;SDS011;55778;54.346;10.210;2022-11-15T15:54:40;19.75;;;10.93;;
68792;SDS011;55778;54.346;10.210;2022-11-15T15:57:06;21.20;;;11.15;;
68792;SDS011;55778;54.346;10.210;2022-11-15T15:59:33;24.92;;;11.68;;
68792;SDS011;55778;54.346;10.210;2022-11-15T16:01:59;22.42;;;11.43;;
68792;SDS011;55778;54.346;10.210;2022-11-15T16:04:24;23.35;;;11.30;;
68792;SDS011;55778;54.346;10.210;2022-11-15T16:06:51;24.45;;;12.23;;
68792;SDS011;55778;54.346;10.210;2022-11-15T16:09:18;21.40;;;12.07;;
68792;SDS011;55778;54.346;10.210;2022-11-15T16:12:04;22.20;;;11.65;;
68792;SDS011;55778;54.346;10.210;2022-11-15T16:14:30;21.60;;;12.05;;
68792;SDS011;55778;54.346;10.210;2022-11-15T16:16:56;24.63;;;11.68;;
68792;SDS011;55778;54.346;10.210;2022-11-15T16:19:22;26.48;;;12.43;;
68792;SDS011;55778;54.346;10.210;2022-11-15T16:21:47;21.52;;;11.23;;
68792;SDS011;55778;54.346;10.210;2022-11-15T16:24:13;24.90;;;12.27;;
68792;SDS011;55778;54.346;10.210;2022-11-15T16:26:38;25.75;;;12.05;;
68792;SDS011;55778;54.346;10.210;2022-11-15T16:29:07;25.05;;;12.82;;
68792;SDS011;55778;54.346;10.210;2022-11-15T16:31:34;25.30;;;12.32;;
68792;SDS011;55778;54.346;10.210;2022-11-15T16:33:59;22.48;;;12.55;;
68792;SDS011;55778;54.346;10.210;2022-11-15T16:36:25;22.80;;;11.60;;